Ana Sayfa
METAR-TAF:

METAR-TAF

Havaalanları :

Longyearbyen, Norveç

Enlem: 78-15N, Boylam: 015-28E, yükseklik: 2 m

Güncel hava durumu gözlemi

Rapor saat 13:20 UTC de 42 dakika önce yapıldı.
Rüzgar doğu/güneydoğudan 11 kt
Sıcaklık -16°C
Nem 65%
Basınç 973 hPa
Görüş mesafesi 10 km veya daha fazla
1500 ft yükseklikte az bulutlu
12000 ft yükseklikte parçalı bulutlu

METAR: ENSB 221320Z 11011KT 9999 FEW015 SCT120 M16/M21 Q0973 RMK WIND 1400FT 14014KT

Saat: 15:02 (14:02 UTC)

Tahmin

Ayın 22'si saat 12 UTC'den ayın 23'si saat 12 UTC'ye kadar geçerli Tahmin
Rüzgar doğu/güneydoğudan 8 kt
Görüş mesafesi 10 km veya daha fazla
1000 ft yükseklikte az bulutlu
Geçici
ayın 22'si saat 21 UTC'den ayın 23'si saat 12 UTC'ye kadar
Rüzgar kuzeydoğudan 15 kt

TAF: ENSB 2212/2312 12008KT 9999 FEW010 TEMPO 2221/2312 04015KT

4.000'den fazla havaalanı için hava durumu gözlemleri ve tahminleri (METAR ve TAF raporları).

Kullanılabilir istasyonlar harita üzerinde sarı ve kırmızı noktalarla gösterilir.

İstasyonun adını görmek için fareyi noktanın üzerinde gezdirin.

Sonrasında hava gözlem ve tahminlerini görmek için tıklayın.

Haritayı değiştirmek için: yaklaştırmak için siyah artı işaretli yeşil düğmeye ve uzaklaştırmak için de eksi işaretli düğmeye hızla tıklayın; bitişik haritalar için yeşil okları kullanın.


METAR-TAF: